Time;durP1;ratioP1;P1;durP2;ratioP2;P2;SDS_P1;SDS_P2;PMS_P1;PMS_P2;Temp;Humidity;BMP_temperature;BMP_pressure;BME280_temperature;BME280_humidity;BME280_pressure;Samples;Min_cycle;Max_cycle;Signal;HPM_P1;HPM_P2
2023/03/21 05:30:33;;;;;;;;;6.50;5.00;;;;;13.22;54.64;101156.31;5064345;27;45537;-73
2023/03/21 05:32:59;;;;;;;;;3.25;3.25;;;;;13.08;54.29;101134.56;5048343;28;45244;-72
2023/03/21 05:35:25;;;;;;;;;3.75;3.75;;;;;13.15;54.91;101158.44;5055374;28;45610;-72
2023/03/21 05:37:50;;;;;;;;;5.00;4.00;;;;;13.08;55.29;101131.88;5054963;28;45965;-73
2023/03/21 05:40:16;;;;;;;;;5.00;3.75;;;;;13.17;55.53;101140.38;5055284;28;45552;-74
2023/03/21 05:42:41;;;;;;;;;5.00;5.00;;;;;13.14;55.41;101132.47;5055043;28;45451;-72
2023/03/21 05:45:07;;;;;;;;;5.25;4.00;;;;;13.06;55.78;101126.56;5054794;28;45373;-74
2023/03/21 05:47:32;;;;;;;;;3.75;3.75;;;;;13.14;55.72;101139.66;5054828;28;45407;-72
2023/03/21 05:49:57;;;;;;;;;6.50;4.00;;;;;13.04;55.43;101130.25;5054908;28;45390;-72
2023/03/21 05:52:23;;;;;;;;;6.00;4.00;;;;;13.12;55.87;101152.28;5055122;28;45489;-73
2023/03/21 05:54:49;;;;;;;;;4.50;4.50;;;;;13.06;55.97;101156.16;5054910;28;45659;-73
2023/03/21 05:57:14;;;;;;;;;6.00;6.00;;;;;12.96;56.51;101124.38;5054679;28;46996;-73
2023/03/21 05:59:40;;;;;;;;;7.50;4.00;;;;;12.99;56.27;101127.81;5055036;28;45398;-74
2023/03/21 06:02:05;;;;;;;;;4.50;4.00;;;;;13.03;56.35;101131.22;5055015;28;45387;-74
2023/03/21 06:04:31;;;;;;;;;6.00;5.00;;;;;13.00;56.42;101129.56;5055318;28;45212;-75
2023/03/21 06:06:57;;;;;;;;;4.50;4.00;;;;;13.01;56.94;101120.53;5058467;28;45440;-77
2023/03/21 06:09:23;;;;;;;;;4.00;4.00;;;;;13.04;56.56;101133.81;5054750;28;45448;-78
2023/03/21 06:11:51;;;;;;;;;7.00;5.50;;;;;13.09;56.01;101136.31;5054851;28;45474;-78
2023/03/21 06:14:17;;;;;;;;;6.00;5.00;;;;;12.80;56.43;101106.31;5043706;28;46151;-79
2023/03/21 06:16:43;;;;;;;;;4.75;4.25;;;;;13.00;56.38;101140.31;5037106;28;45352;-77
2023/03/21 06:19:09;;;;;;;;;4.75;4.75;;;;;12.97;56.59;101132.41;5054997;28;45368;-79
2023/03/21 06:21:34;;;;;;;;;6.25;5.00;;;;;12.96;56.89;101129.78;5055381;28;45333;-77
2023/03/21 06:24:00;;;;;;;;;6.50;5.50;;;;;13.03;56.75;101159.00;5054910;28;45268;-81
2023/03/21 06:26:25;;;;;;;;;5.00;5.00;;;;;12.81;57.15;101121.53;5054139;28;46306;-79
2023/03/21 06:28:52;;;;;;;;;7.25;6.00;;;;;13.05;57.45;101157.09;5054551;28;45425;-80
2023/03/21 06:31:21;;;;;;;;;6.00;6.00;;;;;13.09;56.95;101163.22;5054644;28;45462;-79
2023/03/21 06:33:47;;;;;;;;;5.75;5.75;;;;;13.07;56.88;101155.22;5054784;28;45381;-74
2023/03/21 06:36:12;;;;;;;;;6.00;6.00;;;;;13.07;57.02;101163.28;5054341;28;45508;-76
2023/03/21 06:38:38;;;;;;;;;5.00;5.00;;;;;12.93;56.84;101146.94;5054369;28;45370;-76
2023/03/21 06:41:04;;;;;;;;;6.00;6.00;;;;;12.97;56.94;101143.16;5054802;28;45324;-73
2023/03/21 06:43:30;;;;;;;;;7.00;7.00;;;;;12.88;57.61;101133.72;5054044;28;45517;-77
2023/03/21 06:45:56;;;;;;;;;5.75;5.75;;;;;12.93;57.28;101122.72;5057106;28;45801;-75
2023/03/21 06:48:22;;;;;;;;;4.25;4.25;;;;;12.86;57.46;101119.47;5039464;28;45533;-76
2023/03/21 06:50:51;;;;;;;;;7.50;7.50;;;;;12.96;57.31;101129.78;5057830;28;45283;-79
2023/03/21 06:53:17;;;;;;;;;6.25;6.00;;;;;12.96;57.92;101119.00;5065172;28;45325;-77
2023/03/21 06:55:48;;;;;;;;;7.00;6.00;;;;;12.78;57.87;101075.91;5036427;28;47232;-77
2023/03/21 06:58:13;;;;;;;;;7.00;7.00;;;;;13.13;57.61;101117.25;5058607;28;45497;-76
2023/03/21 07:00:38;;;;;;;;;10.00;7.25;;;;;13.18;57.73;101123.25;5060365;28;45263;-76
2023/03/21 07:03:04;;;;;;;;;7.25;7.25;;;;;13.24;57.52;101131.06;5056517;28;45542;-75
2023/03/21 07:05:29;;;;;;;;;6.00;6.00;;;;;13.30;57.94;101127.16;5063754;28;46275;-75
2023/03/21 07:07:54;;;;;;;;;8.00;8.00;;;;;13.27;58.07;101101.25;5057500;28;45220;-78
2023/03/21 07:10:20;;;;;;;;;8.75;7.25;;;;;13.32;57.84;101105.56;5057430;28;45462;-75
2023/03/21 07:12:45;;;;;;;;;6.75;6.75;;;;;13.35;58.17;101121.56;5038793;28;47507;-75
2023/03/21 07:15:10;;;;;;;;;7.00;7.00;;;;;13.22;57.45;101102.44;5056943;28;46409;-74
2023/03/21 07:17:36;;;;;;;;;9.50;7.75;;;;;13.34;58.07;101109.03;5057324;28;45461;-75
2023/03/21 07:20:05;;;;;;;;;9.25;7.50;;;;;13.34;57.35;101112.59;5057258;28;45320;-75
2023/03/21 07:22:31;;;;;;;;;8.25;6.50;;;;;13.37;57.56;101112.44;5057367;28;45474;-74
2023/03/21 07:24:56;;;;;;;;;8.00;8.00;;;;;13.39;57.57;101128.50;5056370;28;53053;-75
2023/03/21 07:27:22;;;;;;;;;9.75;9.75;;;;;13.30;57.53;101123.59;5057203;28;45241;-75
2023/03/21 07:29:49;;;;;;;;;7.00;7.00;;;;;13.31;58.11;101123.53;5056791;28;45241;-75
2023/03/21 07:32:14;;;;;;;;;7.75;7.00;;;;;13.15;57.51;101101.03;5056600;28;45982;-75
2023/03/21 07:34:41;;;;;;;;;8.25;8.25;;;;;13.35;57.57;101129.63;5056892;28;46006;-75
2023/03/21 07:37:06;;;;;;;;;7.25;7.25;;;;;13.20;57.32;101124.06;5057098;28;45388;-75
2023/03/21 07:39:33;;;;;;;;;13.50;6.75;;;;;13.18;57.84;101109.81;5057157;28;45346;-75
2023/03/21 07:41:59;;;;;;;;;9.25;6.75;;;;;13.22;57.45;101102.44;5038764;28;46133;-74
2023/03/21 07:44:24;;;;;;;;;8.50;8.50;;;;;13.35;58.10;101121.56;5056742;28;46146;-76
2023/03/21 07:46:50;;;;;;;;;8.00;7.00;;;;;13.37;57.14;101119.63;5057214;28;45225;-77
2023/03/21 07:49:15;;;;;;;;;9.75;8.25;;;;;13.40;57.47;101116.78;5056987;28;45240;-74
2023/03/21 07:51:41;;;;;;;;;11.50;8.00;;;;;13.44;57.17;101083.38;5057125;28;45314;-76
2023/03/21 07:54:06;;;;;;;;;8.25;7.50;;;;;13.50;57.44;101083.94;5058733;28;46369;-76
2023/03/21 07:56:32;;;;;;;;;10.00;7.50;;;;;13.47;57.08;101051.75;5068474;28;45334;-76
2023/03/21 07:58:58;;;;;;;;;6.00;6.00;;;;;13.61;57.52;101064.47;5056861;28;45228;-76
2023/03/21 08:01:24;;;;;;;;;7.50;7.50;;;;;13.62;57.16;101074.31;5057100;28;45407;-74
2023/03/21 08:03:52;;;;;;;;;8.00;6.00;;;;;13.60;56.78;101097.78;5056703;28;45350;-77
2023/03/21 08:06:20;;;;;;;;;10.75;9.75;;;;;13.50;57.25;101083.06;5062280;28;45488;-75
2023/03/21 08:08:46;;;;;;;;;8.75;8.75;;;;;13.57;57.34;101112.28;5038726;28;45504;-74
2023/03/21 08:11:12;;;;;;;;;9.00;9.00;;;;;13.57;57.90;101112.28;5056633;28;45640;-77
2023/03/21 08:13:37;;;;;;;;;13.25;10.00;;;;;13.56;57.44;101131.22;5056309;28;46762;-75
2023/03/21 08:16:03;;;;;;;;;13.00;9.00;;;;;13.43;57.59;101135.50;5056798;28;45233;-75
2023/03/21 08:18:29;;;;;;;;;10.50;10.50;;;;;13.31;58.16;101133.41;5056394;28;45301;-75
2023/03/21 08:20:56;;;;;;;;;9.50;9.50;;;;;13.21;58.63;101162.63;5056653;28;45414;-76
2023/03/21 08:23:23;;;;;;;;;11.00;11.00;;;;;13.04;58.53;101111.41;5055788;28;46065;-76
2023/03/21 08:25:55;;;;;;;;;12.25;11.75;;;;;13.34;58.43;101136.84;5056886;28;45317;-76
2023/03/21 08:28:22;;;;;;;;;9.00;8.25;;;;;13.02;58.91;101097.16;5056354;28;45370;-76
2023/03/21 08:30:48;;;;;;;;;9.25;8.25;;;;;13.31;58.98;101146.88;5054594;28;45377;-75
2023/03/21 08:33:14;;;;;;;;;9.50;9.50;;;;;13.27;58.57;101113.00;5052783;28;45468;-75
2023/03/21 08:35:40;;;;;;;;;9.50;8.00;;;;;13.36;58.50;101124.16;5057209;28;45493;-75
2023/03/21 08:38:06;;;;;;;;;12.25;8.75;;;;;13.27;57.99;101083.38;5056477;28;45513;-75
2023/03/21 08:40:31;;;;;;;;;7.75;7.75;;;;;13.39;58.18;101097.06;5056094;28;45315;-76
2023/03/21 08:42:57;;;;;;;;;8.50;8.50;;;;;13.54;58.06;101098.09;5055836;28;46441;-77
2023/03/21 08:45:23;;;;;;;;;12.00;7.75;;;;;13.50;57.94;101102.78;5056526;28;45371;-75
2023/03/21 08:47:49;;;;;;;;;10.25;8.75;;;;;13.61;58.34;101139.91;5056098;28;45669;-76
2023/03/21 08:50:18;;;;;;;;;7.25;7.25;;;;;13.58;58.54;101137.41;5056250;28;45287;-75
2023/03/21 08:52:44;;;;;;;;;9.00;7.00;;;;;13.47;58.72;101142.47;5055986;28;46265;-76
2023/03/21 08:55:11;;;;;;;;;9.75;8.25;;;;;13.39;58.96;101134.78;5066647;28;45415;-75
2023/03/21 08:57:36;;;;;;;;;11.25;8.75;;;;;13.35;59.34;101127.81;5058724;28;45297;-76
2023/03/21 09:00:13;;;;;;;;;8.00;7.50;;;;;13.45;59.34;101122.81;5056231;28;45233;-75
2023/03/21 09:02:40;;;;;;;;;8.50;8.50;;;;;13.45;59.12;101145.22;5055961;28;45469;-75
2023/03/21 09:05:06;;;;;;;;;7.00;7.00;;;;;13.49;59.43;101143.25;5060682;28;45451;-76
2023/03/21 09:07:35;;;;;;;;;6.75;6.25;;;;;13.44;60.04;101148.03;5056009;28;45402;-75
2023/03/21 09:10:01;;;;;;;;;5.25;5.25;;;;;13.54;59.38;101149.25;5037900;28;47316;-76
2023/03/21 09:12:26;;;;;;;;;7.75;6.50;;;;;13.52;59.29;101151.19;5055849;28;45365;-76
2023/03/21 09:14:52;;;;;;;;;5.00;5.00;;;;;13.48;59.22;101138.81;5037168;28;45634;-76
2023/03/21 09:17:17;;;;;;;;;6.00;6.00;;;;;13.47;59.12;101113.69;5055592;28;45936;-74
2023/03/21 09:19:45;;;;;;;;;10.00;7.75;;;;;13.78;59.11;101147.97;5055671;28;45217;-73
2023/03/21 09:22:16;;;;;;;;;7.00;5.00;;;;;13.85;58.82;101159.34;5055373;28;45560;-76
2023/03/21 09:24:46;;;;;;;;;8.00;7.00;;;;;13.99;58.40;101151.38;5055522;28;45444;-77
2023/03/21 09:27:12;;;;;;;;;9.50;6.00;;;;;13.99;58.57;101127.13;5055448;28;45268;-75
2023/03/21 09:29:38;;;;;;;;;9.00;7.50;;;;;13.97;58.29;101140.66;5037257;28;47557;-77
2023/03/21 09:32:05;;;;;;;;;9.00;7.25;;;;;13.91;58.76;101138.31;5055439;28;45503;-75
2023/03/21 09:34:31;;;;;;;;;7.00;7.00;;;;;13.80;58.93;101134.44;5055432;28;45390;-75
2023/03/21 09:36:56;;;;;;;;;6.50;6.50;;;;;13.77;59.14;101146.28;5055777;28;45351;-76
2023/03/21 09:39:23;;;;;;;;;6.75;6.75;;;;;13.72;59.76;101148.31;5055437;28;45545;-77
2023/03/21 09:41:55;;;;;;;;;12.75;8.00;;;;;13.80;59.66;101145.22;5055019;28;46095;-75
2023/03/21 09:44:21;;;;;;;;;5.25;5.25;;;;;13.93;59.08;101152.59;5055035;28;45449;-76
2023/03/21 09:47:08;;;;;;;;;7.75;7.75;;;;;13.83;59.51;101164.78;5055435;28;45248;-75
2023/03/21 09:49:39;;;;;;;;;8.75;6.75;;;;;13.75;59.64;101150.84;5036687;28;46630;-75
2023/03/21 09:52:17;;;;;;;;;7.00;5.00;;;;;13.75;59.92;101137.38;5054949;28;46171;-76
2023/03/21 09:54:43;;;;;;;;;11.75;8.00;;;;;13.81;59.60;101147.81;5061471;28;45585;-76
2023/03/21 09:57:32;;;;;;;;;6.25;6.25;;;;;13.94;59.45;101145.38;5062177;28;45357;-77
2023/03/21 10:00:07;;;;;;;;;2.00;2.00;;;;;13.93;59.66;101146.31;5055028;28;45474;-75
2023/03/21 10:02:45;;;;;;;;;5.00;5.00;;;;;13.92;59.58;101152.66;5054629;28;46061;-75
2023/03/21 10:05:24;;;;;;;;;7.00;5.25;;;;;13.92;59.56;101147.28;5060333;28;45472;-77
2023/03/21 10:07:55;;;;;;;;;2.50;2.50;;;;;13.78;59.14;101107.56;5055124;28;45241;-76
2023/03/21 10:10:27;;;;;;;;;6.25;4.75;;;;;14.09;59.39;101152.63;5054795;28;45370;-75
2023/03/21 10:12:54;;;;;;;;;4.00;4.00;;;;;14.30;58.98;101154.16;5063890;28;45515;-75
2023/03/21 10:15:22;;;;;;;;;4.75;4.75;;;;;14.46;58.81;101154.19;5074744;28;45515;-75
2023/03/21 10:17:56;;;;;;;;;5.00;4.25;;;;;14.49;58.49;101155.88;5075034;28;45327;-76
2023/03/21 10:20:24;;;;;;;;;3.25;3.00;;;;;14.61;58.22;101155.19;5074843;28;45434;-75
2023/03/21 10:22:53;;;;;;;;;3.50;3.50;;;;;14.62;58.09;101155.13;5075003;28;45683;-74
2023/03/21 10:25:40;;;;;;;;;7.75;4.25;;;;;14.64;58.26;101131.59;5074859;28;45429;-76
2023/03/21 10:28:12;;;;;;;;;8.00;5.00;;;;;14.68;58.26;101149.38;5056205;28;45299;-75
2023/03/21 10:30:41;;;;;;;;;6.50;4.75;;;;;14.79;57.92;101147.88;5074667;28;45350;-75
2023/03/21 10:33:13;;;;;;;;;4.50;4.50;;;;;14.94;57.53;101137.09;5074604;28;46312;-74
2023/03/21 10:35:43;;;;;;;;;4.00;4.00;;;;;15.12;57.49;101138.72;5056810;28;45378;-75
2023/03/21 10:38:15;;;;;;;;;5.75;4.00;;;;;15.09;57.36;101132.59;5074783;28;45246;-74
2023/03/21 10:40:40;;;;;;;;;6.50;4.00;;;;;15.20;57.16;101130.16;5075042;28;45524;-76
2023/03/21 10:43:36;;;;;;;;;4.00;4.00;;;;;15.21;57.45;101134.59;5074173;28;45529;-75
2023/03/21 10:46:26;;;;;;;;;5.50;4.00;;;;;15.19;57.48;101131.13;5074449;28;45454;-75
2023/03/21 10:48:52;;;;;;;;;4.00;4.00;;;;;15.24;57.46;101134.41;5055683;28;45397;-75
2023/03/21 10:51:21;;;;;;;;;6.00;4.00;;;;;15.33;57.27;101117.66;5074355;28;45485;-76
2023/03/21 10:53:53;;;;;;;;;5.00;5.00;;;;;15.48;57.29;101126.69;5074506;28;45441;-75
2023/03/21 10:56:24;;;;;;;;;3.25;3.25;;;;;15.54;57.29;101126.34;5067702;28;45272;-77
2023/03/21 10:58:51;;;;;;;;;3.00;3.00;;;;;15.63;57.15;101122.22;5059357;28;45370;-75
2023/03/21 11:01:29;;;;;;;;;5.25;5.25;;;;;15.72;57.12;101114.44;5054288;28;45253;-77
2023/03/21 11:03:57;;;;;;;;;4.75;4.75;;;;;15.81;56.79;101121.97;5053604;28;46947;-77
2023/03/21 11:06:36;;;;;;;;;3.25;3.25;;;;;15.79;56.71;101129.31;5061559;28;45392;-76
2023/03/21 11:09:08;;;;;;;;;4.75;3.25;;;;;15.99;56.77;101133.44;5053834;28;45393;-75
2023/03/21 11:11:39;;;;;;;;;4.00;2.25;;;;;15.94;56.83;101102.28;5053902;28;45468;-75
2023/03/21 11:14:22;;;;;;;;;4.50;4.50;;;;;16.04;56.21;101117.84;5053432;28;46043;-75
2023/03/21 11:16:48;;;;;;;;;3.50;3.50;;;;;16.16;56.08;101108.09;5053968;28;45412;-75
2023/03/21 11:19:24;;;;;;;;;3.50;1.00;;;;;16.44;55.77;101124.28;5054034;28;45457;-75
2023/03/21 11:21:50;;;;;;;;;3.50;3.50;;;;;16.61;54.98;101112.41;5053845;28;45375;-75
2023/03/21 11:24:17;;;;;;;;;9.50;6.75;;;;;16.75;54.69;101117.81;5053757;28;46409;-77
2023/03/21 11:26:46;;;;;;;;;6.75;5.25;;;;;16.85;54.12;101126.16;5035831;28;45523;-75
2023/03/21 11:29:35;;;;;;;;;6.50;6.00;;;;;16.69;54.83;101123.59;5053961;28;45402;-76
2023/03/21 11:32:21;;;;;;;;;4.50;4.50;;;;;16.75;54.83;101122.34;5056270;28;45403;-76
2023/03/21 11:34:50;;;;;;;;;6.50;5.00;;;;;16.84;54.85;101116.31;5038741;28;45385;-75
2023/03/21 11:37:20;;;;;;;;;6.00;5.25;;;;;17.11;54.33;101119.00;5057110;28;45338;-76
2023/03/21 11:39:46;;;;;;;;;5.75;5.00;;;;;17.30;54.17;101114.97;5057241;28;45493;-76
2023/03/21 11:42:39;;;;;;;;;4.00;4.00;;;;;17.13;53.96;101122.50;5056934;28;45269;-75
2023/03/21 11:45:20;;;;;;;;;6.00;5.50;;;;;16.89;54.61;101112.34;5039061;28;46420;-75
2023/03/21 11:47:48;;;;;;;;;6.00;4.75;;;;;16.85;54.88;101118.91;5039022;28;45381;-76
2023/03/21 11:50:28;;;;;;;;;5.50;4.00;;;;;16.78;55.26;101114.00;5066309;28;45307;-75
2023/03/21 11:53:20;;;;;;;;;5.75;5.75;;;;;16.90;55.02;101113.19;5077923;28;45497;-76
2023/03/21 11:55:52;;;;;;;;;5.00;5.00;;;;;16.85;55.30;101113.50;5076157;28;45556;-76
2023/03/21 11:58:36;;;;;;;;;8.50;5.00;;;;;16.46;55.88;101121.47;5063446;28;45740;-74
2023/03/21 12:01:26;;;;;;;;;6.00;5.50;;;;;16.34;56.74;101117.72;5056853;28;45504;-75
2023/03/21 12:04:20;;;;;;;;;6.75;6.75;;;;;16.38;56.66;101118.41;5056676;28;45240;-74
2023/03/21 12:06:54;;;;;;;;;5.75;5.75;;;;;16.20;57.21;101106.91;5039668;28;45354;-77
2023/03/21 12:09:35;;;;;;;;;7.25;6.25;;;;;16.08;57.52;101095.00;5038908;28;45961;-75
2023/03/21 12:12:31;;;;;;;;;6.50;5.25;;;;;16.24;57.09;101124.69;5056560;28;45400;-76
2023/03/21 12:15:16;;;;;;;;;5.00;5.00;;;;;15.97;58.08;101112.91;5056781;28;45604;-78
2023/03/21 12:17:53;;;;;;;;;4.00;4.00;;;;;15.92;58.09;101117.72;5038240;28;47483;-77
2023/03/21 12:20:23;;;;;;;;;5.75;4.75;;;;;15.74;58.66;101100.78;5056094;28;45390;-75
2023/03/21 12:23:20;;;;;;;;;5.50;5.25;;;;;15.63;58.64;101087.97;5056741;28;45458;-77
2023/03/21 12:26:11;;;;;;;;;5.00;5.00;;;;;15.78;58.93;101114.03;5062790;28;45402;-76
2023/03/21 12:28:55;;;;;;;;;7.00;6.75;;;;;15.82;59.03;101106.63;5050187;28;47405;-75
2023/03/21 12:31:54;;;;;;;;;5.25;5.25;;;;;15.88;59.07;101099.00;5076914;28;45456;-77
2023/03/21 12:34:38;;;;;;;;;3.00;3.00;;;;;15.95;58.71;101099.47;5077099;28;45338;-76
2023/03/21 12:37:26;;;;;;;;;4.75;4.75;;;;;16.00;58.61;101075.69;5077034;28;45503;-76
2023/03/21 12:39:58;;;;;;;;;9.50;7.00;;;;;15.99;58.55;101078.53;5058717;28;46291;-76
2023/03/21 12:42:29;;;;;;;;;5.25;4.00;;;;;16.01;58.90;101080.16;5076655;28;45386;-75
2023/03/21 12:45:04;;;;;;;;;6.00;5.00;;;;;15.94;58.81;101059.88;5058220;28;45260;-77
2023/03/21 12:47:33;;;;;;;;;6.00;4.75;;;;;16.11;58.62;101080.44;5076628;28;45579;-76
2023/03/21 12:50:14;;;;;;;;;6.00;4.75;;;;;16.27;58.73;101073.94;5076556;28;46672;-76
2023/03/21 12:52:43;;;;;;;;;3.75;3.75;;;;;16.71;57.17;101061.22;5042777;28;46044;-76
2023/03/21 12:55:29;;;;;;;;;4.25;4.25;;;;;17.90;53.99;101060.19;5066197;28;45346;-76
2023/03/21 12:58:03;;;;;;;;;5.25;5.25;;;;;19.56;52.71;101053.19;5061857;28;45426;-75
2023/03/21 13:00:41;;;;;;;;;3.75;3.75;;;;;21.26;47.67;101030.97;5037455;28;47649;-76
2023/03/21 13:03:20;;;;;;;;;3.75;2.50;;;;;22.75;42.93;101035.88;5055987;28;45531;-76
2023/03/21 13:05:57;;;;;;;;;2.25;2.25;;;;;22.80;42.29;101036.28;5063428;28;46790;-77
2023/03/21 13:08:56;;;;;;;;;3.25;3.25;;;;;22.54;43.31;101041.41;5038535;28;45226;-76
2023/03/21 13:11:26;;;;;;;;;3.00;3.00;;;;;21.53;43.69;101038.59;5066272;28;45511;-76
2023/03/21 13:14:03;;;;;;;;;4.00;3.00;;;;;20.99;45.31;101038.75;5075314;28;45356;-74
2023/03/21 13:16:37;;;;;;;;;4.50;3.00;;;;;20.24;47.05;101042.22;5057646;28;45365;-77
2023/03/21 13:19:06;;;;;;;;;2.50;2.50;;;;;19.71;47.60;101032.94;5076592;28;45339;-74
2023/03/21 13:21:50;;;;;;;;;3.25;3.25;;;;;19.40;48.56;101031.72;5075809;28;46349;-77
2023/03/21 13:24:25;;;;;;;;;3.00;3.00;;;;;19.15;49.28;101034.59;5075839;28;45313;-76
2023/03/21 13:27:05;;;;;;;;;3.75;3.00;;;;;19.01;49.84;101035.66;5075736;28;45240;-75
2023/03/21 13:29:44;;;;;;;;;3.00;3.00;;;;;18.81;50.24;101029.03;5075712;28;45346;-76
2023/03/21 13:32:26;;;;;;;;;2.75;2.75;;;;;18.76;50.49;101039.38;5075632;28;45418;-75
2023/03/21 13:34:58;;;;;;;;;3.25;3.25;;;;;18.75;50.70;101032.22;5075464;28;45244;-75
2023/03/21 13:37:29;;;;;;;;;3.50;2.25;;;;;18.45;51.34;101016.34;5075592;28;45355;-76
2023/03/21 13:40:00;;;;;;;;;3.50;3.50;;;;;18.43;51.33;101010.16;5075529;28;45382;-76
2023/03/21 13:42:31;;;;;;;;;2.75;2.75;;;;;18.42;51.47;101007.56;5075200;28;45456;-77
2023/03/21 13:44:59;;;;;;;;;3.00;1.00;;;;;18.22;51.59;101006.31;5075264;28;45166;-76
2023/03/21 13:47:54;;;;;;;;;3.00;3.00;;;;;18.10;52.16;101004.50;5057168;28;45456;-76
2023/03/21 13:50:20;;;;;;;;;4.50;3.25;;;;;18.01;52.41;101016.03;5075315;28;45380;-76
2023/03/21 13:53:14;;;;;;;;;2.00;2.00;;;;;17.96;52.93;101010.03;5074511;28;46158;-75
2023/03/21 13:55:44;;;;;;;;;3.00;3.00;;;;;17.84;53.02;100981.97;5074180;28;45359;-76
2023/03/21 13:58:30;;;;;;;;;4.75;3.50;;;;;17.88;53.15;101002.47;5054850;28;45404;-75
2023/03/21 14:01:26;;;;;;;;;4.00;2.25;;;;;17.75;53.80;100999.78;5054740;28;45420;-76
2023/03/21 14:04:16;;;;;;;;;6.00;4.00;;;;;17.67;54.41;101002.19;5036514;28;47751;-74
2023/03/21 14:06:54;;;;;;;;;3.75;3.75;;;;;17.40;54.80;100979.69;5061078;28;45423;-76
2023/03/21 14:09:36;;;;;;;;;4.00;4.00;;;;;17.49;55.01;101003.44;5055381;28;45305;-76
2023/03/21 14:12:07;;;;;;;;;3.00;3.00;;;;;17.47;55.00;101008.09;5054680;28;45236;-75
2023/03/21 14:14:39;;;;;;;;;4.75;3.00;;;;;17.70;54.70;100995.66;5054608;28;46177;-76
2023/03/21 14:17:20;;;;;;;;;4.50;4.00;;;;;18.66;53.45;100996.72;5054813;28;45402;-76
2023/03/21 14:19:51;;;;;;;;;3.75;3.75;;;;;18.84;51.84;100990.78;5054720;28;45331;-76
2023/03/21 14:22:17;;;;;;;;;4.00;3.00;;;;;18.87;51.95;100995.13;5054577;28;45480;-76
2023/03/21 14:25:02;;;;;;;;;4.00;4.00;;;;;18.89;51.81;101007.56;5036687;28;47167;-76
2023/03/21 14:27:34;;;;;;;;;6.00;3.50;;;;;19.25;50.42;101011.16;5064248;28;45401;-75
2023/03/21 14:30:00;;;;;;;;;3.25;3.25;;;;;19.23;49.94;101004.97;5075011;28;45410;-76
2023/03/21 14:32:29;;;;;;;;;3.50;3.50;;;;;19.19;50.30;100998.06;5074809;28;45497;-78
2023/03/21 14:34:56;;;;;;;;;3.00;3.00;;;;;19.47;50.09;100988.63;5054511;28;48116;-78
2023/03/21 14:37:40;;;;;;;;;3.25;3.00;;;;;19.57;49.98;100986.91;5056703;28;45391;-75
2023/03/21 14:40:26;;;;;;;;;2.75;2.75;;;;;19.38;50.05;100994.78;5075134;28;45361;-76
2023/03/21 14:42:53;;;;;;;;;1.00;1.00;;;;;19.76;48.70;100968.13;5074542;28;45256;-75
2023/03/21 14:45:22;;;;;;;;;3.00;3.00;;;;;20.79;46.12;100996.81;5074978;28;46664;-77
2023/03/21 14:47:54;;;;;;;;;2.75;2.75;;;;;21.83;45.29;100991.38;5074760;28;45435;-76
2023/03/21 14:50:27;;;;;;;;;2.00;2.00;;;;;22.26;41.95;100983.81;5075085;28;45430;-77
2023/03/21 14:52:53;;;;;;;;;2.75;1.75;;;;;22.90;41.43;100988.81;5075249;28;45162;-76
2023/03/21 14:55:19;;;;;;;;;2.00;2.00;;;;;23.30;41.10;100963.19;5075297;28;45399;-79
2023/03/21 14:57:44;;;;;;;;;2.00;2.00;;;;;23.99;39.95;100974.66;5057138;28;45533;-76
2023/03/21 15:00:27;;;;;;;;;4.75;3.75;;;;;23.44;39.31;100959.13;5056340;28;45302;-77
2023/03/21 15:02:56;;;;;;;;;2.75;2.75;;;;;23.05;40.17;100982.94;5062866;28;45465;-76
2023/03/21 15:05:27;;;;;;;;;1.50;1.50;;;;;22.65;40.80;100968.34;5074710;28;45397;-76
2023/03/21 15:07:56;;;;;;;;;3.00;1.75;;;;;22.21;42.84;100968.84;5058131;28;45270;-76
2023/03/21 15:10:23;;;;;;;;;1.25;1.00;;;;;21.92;42.17;100981.50;5057939;28;45551;-77
2023/03/21 15:12:50;;;;;;;;;3.75;1.75;;;;;21.03;44.64;100983.81;5057423;28;45341;-78
2023/03/21 15:15:16;;;;;;;;;2.00;2.00;;;;;20.27;45.47;100994.81;5057567;28;45567;-77
2023/03/21 15:17:42;;;;;;;;;0.00;0.00;;;;;19.74;45.96;100988.28;5057736;28;45325;-76
2023/03/21 15:20:14;;;;;;;;;1.75;1.75;;;;;19.69;46.63;100985.94;5057602;28;45261;-76
2023/03/21 15:22:45;;;;;;;;;3.25;3.25;;;;;19.96;46.02;100966.53;5057637;28;45276;-76
2023/03/21 15:25:18;;;;;;;;;2.00;2.00;;;;;20.69;44.43;100969.47;5057486;28;46215;-78
2023/03/21 15:27:43;;;;;;;;;2.25;2.25;;;;;21.39;43.62;100973.47;5057261;28;45477;-74
2023/03/21 15:30:22;;;;;;;;;2.25;2.25;;;;;21.86;42.16;100974.75;5057382;28;45220;-76
2023/03/21 15:32:48;;;;;;;;;2.75;2.75;;;;;22.18;41.42;100955.47;5057058;28;45419;-75
2023/03/21 15:35:24;;;;;;;;;1.25;1.25;;;;;22.55;40.28;100969.34;5057399;28;46337;-76
2023/03/21 15:37:57;;;;;;;;;2.00;2.00;;;;;23.11;39.85;100960.47;5056984;28;45384;-77
2023/03/21 15:40:24;;;;;;;;;2.50;2.50;;;;;23.15;39.12;100973.69;5066043;28;45626;-76
2023/03/21 15:42:50;;;;;;;;;0.50;0.50;;;;;23.27;38.75;100958.88;5077011;28;45450;-76
2023/03/21 15:45:24;;;;;;;;;1.50;1.50;;;;;23.04;38.66;100960.19;5077596;28;45847;-77
2023/03/21 15:48:01;;;;;;;;;3.50;1.50;;;;;23.21;39.15;100967.66;5060598;28;45290;-75
2023/03/21 15:50:42;;;;;;;;;2.25;2.25;;;;;23.20;38.22;100962.34;5057053;28;45305;-77
2023/03/21 15:53:16;;;;;;;;;1.75;1.75;;;;;23.53;37.84;100952.78;5057102;28;45414;-75
2023/03/21 15:56:01;;;;;;;;;2.25;2.25;;;;;23.72;37.73;100947.25;5069957;28;47029;-76
2023/03/21 15:58:34;;;;;;;;;1.75;1.75;;;;;24.08;37.42;100945.47;5056597;28;45320;-78
2023/03/21 16:01:05;;;;;;;;;3.00;2.50;;;;;23.74;37.58;100951.53;5057035;28;45434;-78
2023/03/21 16:03:35;;;;;;;;;2.00;2.00;;;;;23.15;38.11;100951.81;5056600;28;45393;-76
2023/03/21 16:06:04;;;;;;;;;2.75;2.25;;;;;23.16;38.80;100948.09;5062688;28;46038;-78
2023/03/21 16:08:35;;;;;;;;;3.00;1.00;;;;;23.26;37.87;100932.53;5038361;28;45288;-76
2023/03/21 16:11:24;;;;;;;;;2.50;2.50;;;;;23.34;38.31;100940.84;5064490;28;45307;-76
2023/03/21 16:13:52;;;;;;;;;4.00;2.50;;;;;23.23;37.80;100942.88;5076544;28;45308;-75
2023/03/21 16:16:26;;;;;;;;;3.50;3.50;;;;;23.55;38.09;100951.63;5076281;28;45326;-76
2023/03/21 16:18:52;;;;;;;;;1.00;1.00;;;;;23.54;37.45;100957.25;5058326;28;45351;-76
2023/03/21 16:21:20;;;;;;;;;3.50;3.50;;;;;23.04;37.72;100945.66;5058353;28;45379;-76
2023/03/21 16:23:46;;;;;;;;;3.00;2.50;;;;;22.34;39.58;100961.28;5069273;28;45486;-76
2023/03/21 16:26:16;;;;;;;;;2.50;0.75;;;;;21.79;40.87;100949.84;5056303;28;46752;-75
2023/03/21 16:28:42;;;;;;;;;1.00;1.00;;;;;21.72;40.95;100939.63;5056007;28;45303;-75
2023/03/21 16:31:17;;;;;;;;;3.00;3.00;;;;;21.66;41.13;100942.91;5056280;28;45448;-75
2023/03/21 16:33:43;;;;;;;;;2.75;2.75;;;;;21.19;41.42;100939.75;5064111;28;45256;-74
2023/03/21 16:36:14;;;;;;;;;2.75;2.75;;;;;20.87;42.12;100949.81;5076235;28;46369;-75
2023/03/21 16:38:39;;;;;;;;;2.75;2.75;;;;;20.55;43.13;100963.47;5076522;28;45278;-77
2023/03/21 16:41:10;;;;;;;;;3.75;2.50;;;;;20.18;44.23;100962.88;5076482;28;45283;-75
2023/03/21 16:43:38;;;;;;;;;3.75;3.75;;;;;19.84;45.20;100971.09;5057762;28;47408;-74
2023/03/21 16:46:04;;;;;;;;;4.50;4.00;;;;;19.44;46.23;100956.22;5076096;28;46199;-75
2023/03/21 16:48:29;;;;;;;;;4.50;3.50;;;;;19.10;47.38;100953.44;5076299;28;45315;-76
2023/03/21 16:50:55;;;;;;;;;4.00;4.00;;;;;18.96;48.03;100959.09;5058386;28;45402;-76
2023/03/21 16:53:20;;;;;;;;;4.25;4.00;;;;;18.83;48.30;100950.13;5058155;28;47499;-74
2023/03/21 16:55:45;;;;;;;;;3.75;3.75;;;;;18.79;48.21;100959.53;5056075;28;46934;-76
2023/03/21 16:58:14;;;;;;;;;4.25;4.25;;;;;18.66;48.88;100956.00;5055374;28;45298;-75
2023/03/21 17:00:39;;;;;;;;;4.50;4.50;;;;;18.35;49.56;100952.84;5055899;28;45354;-75
2023/03/21 17:03:13;;;;;;;;;3.75;2.75;;;;;18.20;50.58;100956.72;5056107;28;45357;-75
2023/03/21 17:05:39;;;;;;;;;5.25;5.00;;;;;18.03;51.08;100954.38;5044633;28;46415;-75
2023/03/21 17:08:05;;;;;;;;;5.00;5.00;;;;;18.03;50.89;100960.66;5055950;28;45182;-75
2023/03/21 17:10:31;;;;;;;;;5.75;4.50;;;;;17.84;51.50;100952.16;5055946;28;45536;-74
2023/03/21 17:12:57;;;;;;;;;5.00;5.00;;;;;17.85;51.88;100962.03;5055945;28;45339;-76